createdAt,value
2023-04-22T00:00:51.957Z,74.10
2023-04-22T00:03:19.664Z,76.40
2023-04-22T00:05:47.821Z,75.80
2023-04-22T00:08:15.459Z,76.50
2023-04-22T00:10:43.164Z,75.50
2023-04-22T00:13:10.863Z,76.20
2023-04-22T00:15:38.795Z,76.80
2023-04-22T00:18:07.426Z,75.50
2023-04-22T00:20:36.551Z,76.20
2023-04-22T00:23:04.418Z,75.70
2023-04-22T00:25:31.980Z,75.70
2023-04-22T00:27:59.565Z,75.40
2023-04-22T00:30:27.185Z,75.90
2023-04-22T00:32:55.267Z,75.70
2023-04-22T00:35:23.084Z,75.20
2023-04-22T00:37:51.134Z,75.50
2023-04-22T00:40:18.925Z,74.90
2023-04-22T00:42:49.423Z,74.80
2023-04-22T00:45:19.919Z,74.70
2023-04-22T00:47:48.699Z,75.20
2023-04-22T00:50:16.711Z,74.80
2023-04-22T00:52:44.602Z,75.10
2023-04-22T00:55:12.694Z,76.30
2023-04-22T00:57:41.038Z,77.00
2023-04-22T01:00:12.101Z,76.30
2023-04-22T01:02:40.160Z,77.50
2023-04-22T01:05:12.032Z,78.20
2023-04-22T01:07:39.815Z,78.10
2023-04-22T01:10:08.061Z,77.60
2023-04-22T01:12:35.648Z,77.10
2023-04-22T01:15:05.047Z,76.90
2023-04-22T01:17:34.546Z,77.00
2023-04-22T01:20:04.430Z,77.40
2023-04-22T01:22:40.599Z,76.20
2023-04-22T01:25:11.197Z,76.80
2023-04-22T01:27:39.782Z,77.90
2023-04-22T01:30:08.690Z,78.10
2023-04-22T01:32:36.751Z,76.90
2023-04-22T01:35:04.746Z,77.20
2023-04-22T01:37:32.396Z,77.00
2023-04-22T01:40:00.417Z,78.00
2023-04-22T01:42:28.851Z,77.60
2023-04-22T01:44:56.520Z,78.60
2023-04-22T01:47:24.247Z,78.60
2023-04-22T01:49:52.616Z,78.70
2023-04-22T01:52:20.966Z,78.70
2023-04-22T01:54:49.308Z,78.90
2023-04-22T01:57:16.988Z,78.80
2023-04-22T01:59:44.917Z,79.00
2023-04-22T02:02:12.733Z,78.10
2023-04-22T02:04:40.422Z,78.10
2023-04-22T02:07:08.040Z,77.90
2023-04-22T02:09:39.040Z,78.40
2023-04-22T02:12:07.594Z,78.00
2023-04-22T02:14:35.350Z,77.30
2023-04-22T02:17:04.106Z,77.90
2023-04-22T02:19:31.805Z,78.70
2023-04-22T02:21:59.739Z,78.90
2023-04-22T02:24:27.435Z,78.70
2023-04-22T02:26:55.152Z,78.00
2023-04-22T02:29:24.327Z,78.30
2023-04-22T02:31:51.911Z,78.10
2023-04-22T02:34:19.637Z,77.70
2023-04-22T02:36:47.506Z,77.50
2023-04-22T02:39:15.454Z,78.20
2023-04-22T02:41:43.333Z,78.00
2023-04-22T02:44:11.570Z,78.20
2023-04-22T02:46:39.309Z,77.80
2023-04-22T02:49:06.925Z,78.80
2023-04-22T02:51:34.539Z,78.00
2023-04-22T02:54:02.088Z,77.80
2023-04-22T02:56:29.657Z,78.80
2023-04-22T02:58:57.348Z,78.40
2023-04-22T03:01:25.064Z,78.40
2023-04-22T03:03:54.647Z,78.40
2023-04-22T03:06:24.439Z,78.90
2023-04-22T03:08:52.200Z,78.80
2023-04-22T03:11:19.888Z,78.70
2023-04-22T03:13:48.754Z,79.70
2023-04-22T03:16:19.521Z,79.00
2023-04-22T03:18:47.922Z,79.40
2023-04-22T03:21:15.483Z,78.70
2023-04-22T03:23:44.102Z,77.60
2023-04-22T03:26:13.773Z,77.90
2023-04-22T03:28:43.193Z,78.80
2023-04-22T03:31:11.042Z,78.60
2023-04-22T03:33:38.871Z,78.40
2023-04-22T03:36:14.069Z,78.70
2023-04-22T03:38:41.730Z,78.90
2023-04-22T03:41:09.663Z,79.90
2023-04-22T03:43:41.200Z,79.20
2023-04-22T03:46:11.183Z,79.00
2023-04-22T03:48:46.402Z,78.50
2023-04-22T03:51:26.001Z,78.40
2023-04-22T03:53:54.787Z,78.00
2023-04-22T03:56:24.730Z,78.30
2023-04-22T03:58:55.887Z,78.60
2023-04-22T04:01:24.061Z,79.20
2023-04-22T04:03:54.418Z,79.00
2023-04-22T04:06:23.776Z,79.60
2023-04-22T04:08:51.399Z,80.10
2023-04-22T04:11:19.114Z,81.40
2023-04-22T04:13:47.843Z,82.30
2023-04-22T04:16:41.611Z,81.00
2023-04-22T04:19:15.165Z,80.30
2023-04-22T04:21:43.529Z,79.50
2023-04-22T04:24:11.419Z,79.00
2023-04-22T04:26:44.645Z,77.90
2023-04-22T04:29:21.587Z,77.80
2023-04-22T04:32:10.346Z,77.90
2023-04-22T04:34:38.136Z,78.40
2023-04-22T04:37:08.042Z,78.20
2023-04-22T04:39:55.013Z,77.60
2023-04-22T04:42:26.100Z,77.50
2023-04-22T04:45:01.220Z,77.60
2023-04-22T04:47:33.959Z,78.30
2023-04-22T04:50:12.576Z,77.70
2023-04-22T04:52:40.795Z,78.00
2023-04-22T04:55:08.895Z,77.50
2023-04-22T04:57:38.489Z,77.10
2023-04-22T05:00:08.063Z,76.30
2023-04-22T05:02:36.584Z,75.90
2023-04-22T05:05:04.827Z,76.10
2023-04-22T05:07:32.688Z,77.40
2023-04-22T05:10:00.798Z,75.30
2023-04-22T05:12:29.071Z,72.40
2023-04-22T05:14:57.371Z,71.20
2023-04-22T05:17:25.526Z,68.70
2023-04-22T05:19:53.151Z,64.90
2023-04-22T05:22:21.559Z,65.00
2023-04-22T05:24:49.622Z,64.20
2023-04-22T05:27:17.819Z,64.00
2023-04-22T05:29:45.662Z,64.10
2023-04-22T05:32:15.001Z,65.40
2023-04-22T05:34:42.700Z,64.90
2023-04-22T05:37:11.162Z,62.00
2023-04-22T05:39:44.022Z,59.80
2023-04-22T05:42:13.115Z,58.40
2023-04-22T05:44:41.354Z,58.00
2023-04-22T05:47:09.678Z,58.10
2023-04-22T05:49:37.387Z,59.00
2023-04-22T05:52:15.075Z,56.60
2023-04-22T05:55:00.798Z,58.80
2023-04-22T05:57:28.702Z,58.70
2023-04-22T05:59:57.351Z,58.20
2023-04-22T06:02:25.409Z,57.20
2023-04-22T06:04:53.483Z,62.00
2023-04-22T06:07:22.452Z,57.60
2023-04-22T06:09:59.413Z,57.50
2023-04-22T06:12:33.671Z,59.50
2023-04-22T06:15:01.569Z,57.70
2023-04-22T06:17:29.622Z,55.50
2023-04-22T06:19:57.726Z,57.90
2023-04-22T06:22:25.342Z,59.40
2023-04-22T06:24:52.897Z,59.70
2023-04-22T06:27:20.558Z,57.50
2023-04-22T06:29:48.245Z,58.40
2023-04-22T06:32:15.990Z,59.30
2023-04-22T06:34:43.561Z,60.80
2023-04-22T06:37:11.921Z,59.20
2023-04-22T06:39:40.552Z,56.60
2023-04-22T06:42:28.149Z,57.50
2023-04-22T06:45:14.163Z,58.70
2023-04-22T06:47:55.108Z,57.60
2023-04-22T06:50:28.048Z,58.50
2023-04-22T06:52:58.839Z,60.10
2023-04-22T06:55:26.587Z,58.10
2023-04-22T06:57:54.224Z,58.20
2023-04-22T07:00:22.178Z,59.70
2023-04-22T07:02:49.896Z,58.00
2023-04-22T07:05:17.829Z,58.70
2023-04-22T07:07:47.313Z,57.50
2023-04-22T07:10:19.823Z,57.10
2023-04-22T07:13:07.818Z,58.00
2023-04-22T07:15:35.425Z,57.80
2023-04-22T07:18:03.072Z,57.90
2023-04-22T07:20:30.734Z,58.70
2023-04-22T07:22:58.328Z,58.70
2023-04-22T07:25:25.920Z,58.10
2023-04-22T07:27:53.510Z,58.80
2023-04-22T07:30:21.159Z,59.50
2023-04-22T07:32:49.055Z,60.10
2023-04-22T07:35:16.772Z,59.50
2023-04-22T07:37:44.562Z,60.50
2023-04-22T07:40:14.180Z,60.70
2023-04-22T07:42:42.016Z,59.60
2023-04-22T07:45:09.725Z,59.80
2023-04-22T07:47:37.450Z,59.80
2023-04-22T07:50:05.716Z,57.50
2023-04-22T07:52:33.400Z,58.00
2023-04-22T07:55:01.107Z,59.10
2023-04-22T07:57:28.844Z,59.40
2023-04-22T08:00:02.045Z,57.40
2023-04-22T08:02:39.671Z,60.30
2023-04-22T08:05:07.705Z,58.30
2023-04-22T08:07:35.567Z,57.70
2023-04-22T08:10:03.484Z,57.00
2023-04-22T08:12:31.098Z,58.00
2023-04-22T08:14:58.778Z,57.20
2023-04-22T08:17:27.071Z,55.60
2023-04-22T08:19:54.617Z,55.60
2023-04-22T08:22:23.947Z,58.10
2023-04-22T08:24:51.572Z,56.30
2023-04-22T08:27:21.527Z,58.30
2023-04-22T08:29:49.140Z,56.90
2023-04-22T08:32:19.656Z,57.40
2023-04-22T08:34:47.352Z,59.00
2023-04-22T08:37:15.231Z,57.10
2023-04-22T08:39:42.864Z,56.60
2023-04-22T08:42:10.963Z,59.50
2023-04-22T08:44:39.625Z,58.90
2023-04-22T08:47:08.369Z,56.20
2023-04-22T08:49:39.174Z,57.00
2023-04-22T08:52:09.534Z,56.80
2023-04-22T08:54:37.587Z,57.10
2023-04-22T08:57:05.793Z,55.90
2023-04-22T08:59:35.553Z,57.20
2023-04-22T09:02:04.852Z,58.00
2023-04-22T09:04:32.938Z,59.20
2023-04-22T09:07:03.281Z,55.30
2023-04-22T09:09:32.503Z,56.20
2023-04-22T09:12:00.275Z,53.50
2023-04-22T09:14:28.370Z,58.00
2023-04-22T09:16:58.710Z,55.30
2023-04-22T09:19:26.360Z,56.60
2023-04-22T09:21:54.670Z,57.40
2023-04-22T09:24:22.781Z,57.00
2023-04-22T09:26:50.809Z,54.40
2023-04-22T09:29:18.539Z,56.80
2023-04-22T09:31:50.447Z,56.30
2023-04-22T09:34:18.476Z,53.60
2023-04-22T09:36:46.971Z,51.60
2023-04-22T09:39:14.962Z,52.30
2023-04-22T09:41:42.852Z,52.70
2023-04-22T09:44:16.006Z,49.80
2023-04-22T09:46:44.700Z,52.20
2023-04-22T09:49:12.420Z,54.80
2023-04-22T09:51:43.203Z,54.50
2023-04-22T09:54:11.500Z,54.30
2023-04-22T09:56:53.792Z,51.50
2023-04-22T09:59:28.318Z,52.10
2023-04-22T10:01:58.665Z,50.20
2023-04-22T10:04:26.839Z,54.10
2023-04-22T10:06:55.802Z,51.60
2023-04-22T10:09:26.050Z,50.70
2023-04-22T10:11:55.923Z,52.40
2023-04-22T10:14:24.220Z,53.50
2023-04-22T10:16:59.784Z,51.80
2023-04-22T10:19:28.193Z,51.30
2023-04-22T10:22:03.121Z,51.50
2023-04-22T10:24:36.819Z,51.20
2023-04-22T10:27:10.816Z,51.00
2023-04-22T10:29:40.941Z,51.10
2023-04-22T10:32:18.047Z,51.30
2023-04-22T10:34:49.702Z,52.00
2023-04-22T10:37:21.871Z,51.30
2023-04-22T10:40:07.864Z,50.00
2023-04-22T10:42:37.106Z,49.30
2023-04-22T10:45:05.514Z,52.20
2023-04-22T10:47:37.898Z,51.90
2023-04-22T10:50:26.979Z,52.20
2023-04-22T10:53:00.351Z,51.00
2023-04-22T10:55:51.868Z,49.90
2023-04-22T10:58:22.153Z,50.50
2023-04-22T11:00:58.215Z,53.00
2023-04-22T11:03:29.222Z,52.20
2023-04-22T11:06:17.371Z,51.60
2023-04-22T11:09:13.224Z,53.30
2023-04-22T11:11:41.378Z,53.80
2023-04-22T11:14:10.365Z,54.00
2023-04-22T11:16:38.276Z,53.00
2023-04-22T11:19:05.905Z,54.20
2023-04-22T11:21:33.547Z,54.50
2023-04-22T11:24:06.258Z,54.00
2023-04-22T11:26:35.891Z,55.90
2023-04-22T11:29:03.680Z,54.80
2023-04-22T11:31:31.285Z,52.40
2023-04-22T11:34:01.962Z,53.70
2023-04-22T11:36:29.534Z,51.50
2023-04-22T11:38:57.514Z,54.00
2023-04-22T11:41:25.130Z,55.20
2023-04-22T11:43:54.969Z,51.80
2023-04-22T11:46:30.789Z,52.60
2023-04-22T11:49:17.222Z,52.40
2023-04-22T11:51:57.841Z,51.50
2023-04-22T11:54:36.483Z,52.00
2023-04-22T11:57:08.982Z,52.50
2023-04-22T11:59:36.602Z,51.60
2023-04-22T12:02:09.918Z,52.50
2023-04-22T12:04:41.473Z,53.50
2023-04-22T12:07:09.062Z,52.00
2023-04-22T12:09:36.740Z,53.60
2023-04-22T12:12:05.105Z,52.40
2023-04-22T12:14:36.325Z,52.20
2023-04-22T12:17:12.494Z,51.90
2023-04-22T12:19:40.398Z,53.30
2023-04-22T12:22:08.219Z,53.60
2023-04-22T12:24:35.852Z,52.50
2023-04-22T12:27:03.640Z,52.80
2023-04-22T12:29:32.702Z,52.40
2023-04-22T12:32:00.991Z,53.00
2023-04-22T12:34:28.597Z,52.30
2023-04-22T12:36:56.462Z,50.90
2023-04-22T12:39:23.986Z,52.10
2023-04-22T12:41:51.606Z,52.40
2023-04-22T12:44:19.308Z,52.20
2023-04-22T12:46:47.230Z,52.60
2023-04-22T12:49:14.871Z,53.20
2023-04-22T12:51:42.442Z,52.80
2023-04-22T12:54:10.790Z,54.30
2023-04-22T12:56:38.408Z,54.40
2023-04-22T12:59:06.007Z,53.80
2023-04-22T13:01:34.559Z,52.50
2023-04-22T13:04:03.727Z,53.80
2023-04-22T13:06:32.660Z,52.20
2023-04-22T13:09:00.327Z,54.00
2023-04-22T13:11:27.945Z,50.60
2023-04-22T13:13:55.468Z,54.00
2023-04-22T13:16:23.229Z,52.10
2023-04-22T13:18:51.149Z,51.30
2023-04-22T13:21:18.702Z,50.60
2023-04-22T13:23:46.305Z,50.90
2023-04-22T13:26:13.842Z,51.20
2023-04-22T13:28:42.077Z,52.30
2023-04-22T13:31:10.549Z,53.10
2023-04-22T13:33:38.134Z,51.70
2023-04-22T13:36:06.079Z,51.90
2023-04-22T13:38:33.651Z,52.40
2023-04-22T13:41:03.176Z,53.60
2023-04-22T13:43:31.068Z,53.30
2023-04-22T13:45:58.674Z,53.70
2023-04-22T13:48:27.591Z,54.50
2023-04-22T13:50:55.456Z,53.10
2023-04-22T13:53:23.025Z,54.20
2023-04-22T13:55:50.678Z,52.80
2023-04-22T13:58:18.272Z,53.00
2023-04-22T14:00:46.152Z,53.40
2023-04-22T14:03:14.013Z,53.50
2023-04-22T14:05:41.725Z,53.70
2023-04-22T14:08:09.314Z,53.50
2023-04-22T14:10:37.013Z,54.60
2023-04-22T14:13:04.979Z,55.50
2023-04-22T14:15:32.594Z,53.30
2023-04-22T14:18:00.376Z,54.50
2023-04-22T14:20:28.026Z,53.60
2023-04-22T14:22:56.066Z,54.30
2023-04-22T14:25:23.732Z,53.90
2023-04-22T14:27:51.476Z,52.10
2023-04-22T14:30:20.422Z,54.00
2023-04-22T14:32:48.828Z,51.80
2023-04-22T14:35:19.004Z,52.30
2023-04-22T14:37:46.656Z,53.80
2023-04-22T14:40:14.502Z,54.10
2023-04-22T14:42:42.234Z,52.30
2023-04-22T14:45:10.267Z,53.60
2023-04-22T14:47:37.887Z,53.20
2023-04-22T14:50:06.063Z,52.80
2023-04-22T14:52:33.814Z,52.70
2023-04-22T14:55:15.471Z,53.70
2023-04-22T14:57:43.497Z,54.60
2023-04-22T15:00:11.856Z,52.00
2023-04-22T15:02:40.081Z,53.70
2023-04-22T15:05:08.111Z,52.70
2023-04-22T15:07:35.744Z,52.60
2023-04-22T15:10:03.629Z,53.30
2023-04-22T15:12:31.185Z,53.20
2023-04-22T15:14:58.766Z,53.10
2023-04-22T15:17:27.459Z,53.60
2023-04-22T15:19:57.721Z,51.70
2023-04-22T15:22:25.646Z,52.50
2023-04-22T15:24:53.196Z,54.90
2023-04-22T15:27:20.929Z,54.00
2023-04-22T15:29:48.557Z,55.80
2023-04-22T15:32:16.203Z,55.30
2023-04-22T15:34:43.801Z,55.40
2023-04-22T15:37:13.404Z,54.50
2023-04-22T15:39:41.448Z,54.90
2023-04-22T15:42:09.365Z,54.80
2023-04-22T15:44:38.098Z,54.60
2023-04-22T15:47:06.101Z,55.10
2023-04-22T15:49:35.534Z,58.20
2023-04-22T15:52:03.795Z,57.60
2023-04-22T15:54:31.587Z,59.30
2023-04-22T15:56:59.174Z,60.00
2023-04-22T15:59:26.872Z,61.20
2023-04-22T16:01:55.115Z,61.40
2023-04-22T16:04:23.130Z,61.90
2023-04-22T16:06:51.692Z,61.70
2023-04-22T16:09:19.455Z,63.10
2023-04-22T16:11:47.380Z,63.90
2023-04-22T16:14:15.704Z,64.70
2023-04-22T16:16:43.654Z,64.40
2023-04-22T16:19:11.693Z,65.00
2023-04-22T16:21:39.387Z,65.70
2023-04-22T16:24:07.217Z,65.40
2023-04-22T16:26:36.153Z,64.70
2023-04-22T16:29:04.351Z,64.40
2023-04-22T16:31:32.036Z,64.50
2023-04-22T16:33:59.638Z,65.40
2023-04-22T16:36:27.462Z,64.30
2023-04-22T16:38:55.137Z,64.50
2023-04-22T16:41:23.067Z,65.00
2023-04-22T16:43:51.086Z,65.90
2023-04-22T16:46:18.815Z,66.60
2023-04-22T16:48:46.408Z,65.60
2023-04-22T16:51:14.220Z,66.00
2023-04-22T16:53:42.089Z,66.50
2023-04-22T16:56:09.965Z,66.70
2023-04-22T16:58:56.079Z,67.90
2023-04-22T17:01:24.249Z,67.80
2023-04-22T17:03:52.265Z,68.30
2023-04-22T17:06:20.057Z,68.30
2023-04-22T17:08:47.800Z,68.00
2023-04-22T17:11:15.913Z,67.80
2023-04-22T17:13:43.428Z,68.60
2023-04-22T17:16:11.221Z,67.70
2023-04-22T17:18:38.979Z,68.40
2023-04-22T17:21:06.563Z,69.50
2023-04-22T17:23:35.801Z,70.00
2023-04-22T17:26:03.422Z,70.50
2023-04-22T17:28:31.197Z,70.10
2023-04-22T17:30:58.953Z,70.20
2023-04-22T17:33:27.002Z,69.90
2023-04-22T17:35:54.742Z,69.90
2023-04-22T17:38:22.620Z,70.00
2023-04-22T17:40:50.448Z,69.90
2023-04-22T17:43:18.100Z,70.40
2023-04-22T17:45:45.740Z,70.20
2023-04-22T17:48:13.379Z,70.60
2023-04-22T17:50:41.137Z,71.60
2023-04-22T17:53:09.142Z,71.60
2023-04-22T17:55:36.668Z,71.70
2023-04-22T17:58:05.611Z,71.00
2023-04-22T18:00:34.426Z,71.10
2023-04-22T18:03:02.498Z,70.80
2023-04-22T18:05:30.362Z,71.50
2023-04-22T18:08:04.440Z,72.40
2023-04-22T18:10:32.149Z,72.80
2023-04-22T18:13:00.144Z,73.20
2023-04-22T18:15:27.791Z,72.70
2023-04-22T18:17:55.522Z,72.60
2023-04-22T18:20:23.339Z,72.80
2023-04-22T18:22:52.408Z,73.20
2023-04-22T18:25:20.392Z,73.40
2023-04-22T18:27:50.166Z,73.10
2023-04-22T18:30:18.036Z,74.10
2023-04-22T18:32:46.156Z,74.10
2023-04-22T18:35:15.969Z,73.00
2023-04-22T18:37:44.249Z,73.70
2023-04-22T18:40:13.006Z,74.20
2023-04-22T18:42:45.034Z,73.20
2023-04-22T18:45:13.069Z,73.70
2023-04-22T18:47:41.338Z,73.30
2023-04-22T18:50:09.097Z,74.10
2023-04-22T18:52:37.598Z,73.90
2023-04-22T18:55:06.539Z,73.60
2023-04-22T18:57:34.591Z,74.80
2023-04-22T19:00:03.270Z,74.50
2023-04-22T19:02:33.207Z,74.90
2023-04-22T19:05:02.090Z,75.00
2023-04-22T19:07:30.047Z,75.20
2023-04-22T19:09:57.640Z,75.50
2023-04-22T19:12:25.303Z,76.30
2023-04-22T19:14:53.170Z,76.20
2023-04-22T19:17:21.207Z,76.20
2023-04-22T19:19:49.279Z,76.30
2023-04-22T19:22:17.151Z,76.10
2023-04-22T19:24:45.072Z,75.70
2023-04-22T19:27:13.096Z,75.90
2023-04-22T19:29:42.368Z,75.60
2023-04-22T19:32:11.324Z,76.00
2023-04-22T19:34:39.325Z,75.30
2023-04-22T19:37:08.342Z,75.70
2023-04-22T19:39:38.346Z,75.80
2023-04-22T19:42:06.338Z,75.50
2023-04-22T19:44:34.886Z,75.10
2023-04-22T19:47:02.554Z,74.30
2023-04-22T19:49:32.938Z,75.80
2023-04-22T19:52:02.396Z,76.40
2023-04-22T19:54:30.903Z,75.30
2023-04-22T19:56:58.682Z,76.70
2023-04-22T19:59:31.149Z,77.30
2023-04-22T20:01:59.060Z,77.00
2023-04-22T20:04:27.611Z,77.30
2023-04-22T20:06:57.678Z,77.20
2023-04-22T20:09:27.554Z,77.70
2023-04-22T20:11:55.534Z,78.20
2023-04-22T20:14:24.744Z,77.90
2023-04-22T20:16:53.751Z,78.20
2023-04-22T20:19:21.934Z,78.60
2023-04-22T20:21:51.348Z,78.60
2023-04-22T20:24:19.988Z,79.50
2023-04-22T20:26:50.610Z,78.80
2023-04-22T20:29:18.668Z,78.90
2023-04-22T20:31:46.941Z,80.10
2023-04-22T20:34:14.666Z,79.50
2023-04-22T20:36:43.229Z,80.70
2023-04-22T20:39:14.225Z,81.50
2023-04-22T20:41:42.313Z,80.90
2023-04-22T20:44:09.840Z,80.50
2023-04-22T20:46:38.023Z,80.60
2023-04-22T20:49:05.891Z,80.90
2023-04-22T20:51:33.901Z,81.60
2023-04-22T20:54:01.846Z,81.60
2023-04-22T20:56:29.600Z,80.00
2023-04-22T20:58:57.194Z,79.30
2023-04-22T21:01:27.432Z,80.20
2023-04-22T21:03:57.806Z,80.60
2023-04-22T21:06:28.155Z,80.10
2023-04-22T21:08:56.619Z,79.60
2023-04-22T21:11:24.455Z,79.50
2023-04-22T21:13:52.849Z,77.90
2023-04-22T21:16:24.124Z,78.40
2023-04-22T21:18:56.041Z,79.20
2023-04-22T21:21:27.517Z,78.70
2023-04-22T21:23:56.821Z,79.30
2023-04-22T21:26:24.476Z,78.70
2023-04-22T21:28:52.670Z,78.90
2023-04-22T21:31:21.140Z,78.80
2023-04-22T21:33:49.093Z,78.80
2023-04-22T21:36:16.873Z,78.90
2023-04-22T21:38:44.514Z,79.50
2023-04-22T21:41:12.174Z,79.50
2023-04-22T21:43:39.876Z,79.50
2023-04-22T21:46:07.683Z,80.00
2023-04-22T21:48:36.636Z,79.90
2023-04-22T21:51:04.375Z,80.10
2023-04-22T21:53:32.849Z,80.30
2023-04-22T21:56:00.526Z,80.30
2023-04-22T21:58:29.420Z,81.00
2023-04-22T22:00:58.521Z,81.00
2023-04-22T22:03:26.420Z,81.40
2023-04-22T22:05:54.860Z,81.30
2023-04-22T22:08:22.508Z,81.90
2023-04-22T22:10:50.310Z,81.60
2023-04-22T22:13:17.944Z,81.40
2023-04-22T22:15:45.881Z,82.30
2023-04-22T22:18:13.660Z,81.90
2023-04-22T22:20:41.845Z,82.20
2023-04-22T22:23:10.476Z,81.90
2023-04-22T22:25:38.156Z,83.00
2023-04-22T22:28:05.962Z,83.40
2023-04-22T22:30:33.826Z,83.70
2023-04-22T22:33:02.005Z,83.30
2023-04-22T22:35:30.789Z,83.80
2023-04-22T22:37:58.406Z,83.80
2023-04-22T22:40:26.221Z,85.50
2023-04-22T22:42:53.938Z,84.30
2023-04-22T22:45:21.644Z,85.60
2023-04-22T22:47:49.827Z,85.40
2023-04-22T22:50:17.613Z,86.40
2023-04-22T22:52:45.273Z,86.50
2023-04-22T22:55:13.869Z,86.50
2023-04-22T22:57:41.462Z,88.20
2023-04-22T23:00:11.256Z,87.00
2023-04-22T23:02:39.145Z,87.60
2023-04-22T23:05:10.563Z,86.40
2023-04-22T23:07:38.738Z,88.30
2023-04-22T23:10:07.798Z,88.80
2023-04-22T23:12:35.608Z,88.20
2023-04-22T23:15:03.560Z,87.50
2023-04-22T23:17:31.463Z,87.50
2023-04-22T23:20:01.306Z,88.30
2023-04-22T23:22:31.017Z,87.20
2023-04-22T23:24:59.029Z,87.50
2023-04-22T23:27:26.989Z,86.20
2023-04-22T23:29:54.728Z,86.30
2023-04-22T23:32:23.562Z,87.60
2023-04-22T23:34:53.400Z,86.90
2023-04-22T23:37:21.433Z,87.30
2023-04-22T23:39:49.093Z,87.20
2023-04-22T23:42:16.782Z,86.70
2023-04-22T23:44:44.655Z,86.90
2023-04-22T23:47:13.210Z,87.10
2023-04-22T23:49:41.635Z,88.10
2023-04-22T23:52:10.542Z,88.00
2023-04-22T23:54:39.035Z,87.30
2023-04-22T23:57:07.233Z,89.00
2023-04-22T23:59:35.102Z,88.20
